sensor_id;sensor_type;location;lat;lon;timestamp;temperature;humidity
6627;DHT22;3349;49.830;8.748;2023-07-20T00:00:00;20.00;53.50
6627;DHT22;3349;49.830;8.748;2023-07-20T00:02:26;20.00;53.60
6627;DHT22;3349;49.830;8.748;2023-07-20T00:04:53;20.00;53.90
6627;DHT22;3349;49.830;8.748;2023-07-20T00:07:20;20.00;53.90
6627;DHT22;3349;49.830;8.748;2023-07-20T00:09:48;20.00;53.80
6627;DHT22;3349;49.830;8.748;2023-07-20T00:12:14;20.00;54.00
6627;DHT22;3349;49.830;8.748;2023-07-20T00:14:41;19.90;53.70
6627;DHT22;3349;49.830;8.748;2023-07-20T00:17:08;19.90;53.80
6627;DHT22;3349;49.830;8.748;2023-07-20T00:19:34;19.80;53.90
6627;DHT22;3349;49.830;8.748;2023-07-20T00:22:01;19.70;53.80
6627;DHT22;3349;49.830;8.748;2023-07-20T00:24:30;19.70;54.10
6627;DHT22;3349;49.830;8.748;2023-07-20T00:26:59;19.60;54.60
6627;DHT22;3349;49.830;8.748;2023-07-20T00:29:26;19.60;54.40
6627;DHT22;3349;49.830;8.748;2023-07-20T00:31:53;19.50;54.60
6627;DHT22;3349;49.830;8.748;2023-07-20T00:34:20;19.50;54.70
6627;DHT22;3349;49.830;8.748;2023-07-20T00:36:46;19.50;55.20
6627;DHT22;3349;49.830;8.748;2023-07-20T00:39:14;19.40;55.20
6627;DHT22;3349;49.830;8.748;2023-07-20T00:41:41;19.40;55.20
6627;DHT22;3349;49.830;8.748;2023-07-20T00:44:09;19.30;55.60
6627;DHT22;3349;49.830;8.748;2023-07-20T00:46:35;19.30;56.30
6627;DHT22;3349;49.830;8.748;2023-07-20T00:49:02;19.30;56.20
6627;DHT22;3349;49.830;8.748;2023-07-20T00:51:29;19.30;56.30
6627;DHT22;3349;49.830;8.748;2023-07-20T00:53:56;19.20;56.20
6627;DHT22;3349;49.830;8.748;2023-07-20T00:56:23;19.20;56.10
6627;DHT22;3349;49.830;8.748;2023-07-20T00:58:49;19.20;56.70
6627;DHT22;3349;49.830;8.748;2023-07-20T01:01:18;19.20;57.00
6627;DHT22;3349;49.830;8.748;2023-07-20T01:03:46;19.20;56.80
6627;DHT22;3349;49.830;8.748;2023-07-20T01:06:22;19.20;56.90
6627;DHT22;3349;49.830;8.748;2023-07-20T01:08:59;19.20;56.80
6627;DHT22;3349;49.830;8.748;2023-07-20T01:11:36;19.20;57.70
6627;DHT22;3349;49.830;8.748;2023-07-20T01:14:03;19.10;57.70
6627;DHT22;3349;49.830;8.748;2023-07-20T01:16:32;19.10;58.20
6627;DHT22;3349;49.830;8.748;2023-07-20T01:18:59;19.10;58.40
6627;DHT22;3349;49.830;8.748;2023-07-20T01:21:31;19.00;58.70
6627;DHT22;3349;49.830;8.748;2023-07-20T01:27:19;18.80;60.10
6627;DHT22;3349;49.830;8.748;2023-07-20T01:30:08;18.70;59.80
6627;DHT22;3349;49.830;8.748;2023-07-20T01:32:42;18.70;62.20
6627;DHT22;3349;49.830;8.748;2023-07-20T01:35:11;18.40;64.00
6627;DHT22;3349;49.830;8.748;2023-07-20T01:37:40;18.20;66.50
6627;DHT22;3349;49.830;8.748;2023-07-20T01:40:09;18.00;67.80
6627;DHT22;3349;49.830;8.748;2023-07-20T01:42:36;17.90;69.20
6627;DHT22;3349;49.830;8.748;2023-07-20T01:45:03;17.80;69.80
6627;DHT22;3349;49.830;8.748;2023-07-20T01:47:30;17.70;73.50
6627;DHT22;3349;49.830;8.748;2023-07-20T01:49:58;17.60;73.90
6627;DHT22;3349;49.830;8.748;2023-07-20T01:52:25;17.50;75.00
6627;DHT22;3349;49.830;8.748;2023-07-20T01:54:52;17.50;73.70
6627;DHT22;3349;49.830;8.748;2023-07-20T01:57:18;17.60;74.00
6627;DHT22;3349;49.830;8.748;2023-07-20T01:59:46;17.70;73.10
6627;DHT22;3349;49.830;8.748;2023-07-20T02:02:12;17.60;73.80
6627;DHT22;3349;49.830;8.748;2023-07-20T02:04:38;17.70;72.70
6627;DHT22;3349;49.830;8.748;2023-07-20T02:07:06;17.70;71.70
6627;DHT22;3349;49.830;8.748;2023-07-20T02:09:33;17.80;71.40
6627;DHT22;3349;49.830;8.748;2023-07-20T02:12:00;17.70;71.20
6627;DHT22;3349;49.830;8.748;2023-07-20T02:14:26;17.70;71.20
6627;DHT22;3349;49.830;8.748;2023-07-20T02:16:53;17.70;72.20
6627;DHT22;3349;49.830;8.748;2023-07-20T02:19:24;17.70;72.30
6627;DHT22;3349;49.830;8.748;2023-07-20T02:21:51;17.60;72.60
6627;DHT22;3349;49.830;8.748;2023-07-20T02:24:19;17.50;73.90
6627;DHT22;3349;49.830;8.748;2023-07-20T02:26:46;17.50;73.90
6627;DHT22;3349;49.830;8.748;2023-07-20T02:29:12;17.40;73.50
6627;DHT22;3349;49.830;8.748;2023-07-20T02:31:40;17.40;75.10
6627;DHT22;3349;49.830;8.748;2023-07-20T02:34:08;17.40;75.20
6627;DHT22;3349;49.830;8.748;2023-07-20T02:36:35;17.40;75.40
6627;DHT22;3349;49.830;8.748;2023-07-20T02:39:02;17.40;74.60
6627;DHT22;3349;49.830;8.748;2023-07-20T02:41:30;17.30;73.10
6627;DHT22;3349;49.830;8.748;2023-07-20T02:43:57;17.30;73.10
6627;DHT22;3349;49.830;8.748;2023-07-20T02:46:24;17.30;75.20
6627;DHT22;3349;49.830;8.748;2023-07-20T02:48:50;17.20;75.60
6627;DHT22;3349;49.830;8.748;2023-07-20T02:51:17;17.20;77.10
6627;DHT22;3349;49.830;8.748;2023-07-20T02:53:44;17.10;75.50
6627;DHT22;3349;49.830;8.748;2023-07-20T02:56:10;17.10;74.80
6627;DHT22;3349;49.830;8.748;2023-07-20T02:58:41;17.10;73.90
6627;DHT22;3349;49.830;8.748;2023-07-20T03:01:11;17.20;76.00
6627;DHT22;3349;49.830;8.748;2023-07-20T03:03:38;17.10;76.80
6627;DHT22;3349;49.830;8.748;2023-07-20T03:06:04;17.00;76.60
6627;DHT22;3349;49.830;8.748;2023-07-20T03:08:31;17.00;76.60
6627;DHT22;3349;49.830;8.748;2023-07-20T03:10:58;16.90;77.20
6627;DHT22;3349;49.830;8.748;2023-07-20T03:13:24;16.90;78.60
6627;DHT22;3349;49.830;8.748;2023-07-20T03:15:53;16.80;79.90
6627;DHT22;3349;49.830;8.748;2023-07-20T03:18:20;16.70;79.80
6627;DHT22;3349;49.830;8.748;2023-07-20T03:20:47;16.70;78.90
6627;DHT22;3349;49.830;8.748;2023-07-20T03:23:14;16.70;77.40
6627;DHT22;3349;49.830;8.748;2023-07-20T03:25:42;16.70;78.20
6627;DHT22;3349;49.830;8.748;2023-07-20T03:28:08;16.70;78.10
6627;DHT22;3349;49.830;8.748;2023-07-20T03:30:35;16.80;77.50
6627;DHT22;3349;49.830;8.748;2023-07-20T03:33:03;16.70;78.70
6627;DHT22;3349;49.830;8.748;2023-07-20T03:35:30;16.70;78.50
6627;DHT22;3349;49.830;8.748;2023-07-20T03:37:57;16.70;78.30
6627;DHT22;3349;49.830;8.748;2023-07-20T03:40:24;16.60;78.30
6627;DHT22;3349;49.830;8.748;2023-07-20T03:42:50;16.70;78.70
6627;DHT22;3349;49.830;8.748;2023-07-20T03:45:17;16.70;78.20
6627;DHT22;3349;49.830;8.748;2023-07-20T03:47:44;16.70;78.20
6627;DHT22;3349;49.830;8.748;2023-07-20T03:50:13;16.60;77.50
6627;DHT22;3349;49.830;8.748;2023-07-20T03:52:40;16.60;77.60
6627;DHT22;3349;49.830;8.748;2023-07-20T03:55:08;16.50;77.50
6627;DHT22;3349;49.830;8.748;2023-07-20T03:57:34;16.50;77.70
6627;DHT22;3349;49.830;8.748;2023-07-20T04:00:01;16.50;77.50
6627;DHT22;3349;49.830;8.748;2023-07-20T04:02:30;16.60;77.20
6627;DHT22;3349;49.830;8.748;2023-07-20T04:04:56;16.60;76.30
6627;DHT22;3349;49.830;8.748;2023-07-20T04:07:24;16.60;76.20
6627;DHT22;3349;49.830;8.748;2023-07-20T04:09:51;16.60;77.20
6627;DHT22;3349;49.830;8.748;2023-07-20T04:12:18;16.60;77.20
6627;DHT22;3349;49.830;8.748;2023-07-20T04:14:45;17.00;77.70
6627;DHT22;3349;49.830;8.748;2023-07-20T04:17:11;16.60;76.50
6627;DHT22;3349;49.830;8.748;2023-07-20T04:19:38;16.60;77.40
6627;DHT22;3349;49.830;8.748;2023-07-20T04:22:08;16.60;77.30
6627;DHT22;3349;49.830;8.748;2023-07-20T04:24:36;16.60;78.70
6627;DHT22;3349;49.830;8.748;2023-07-20T04:27:03;16.60;78.50
6627;DHT22;3349;49.830;8.748;2023-07-20T04:29:29;16.50;78.80
6627;DHT22;3349;49.830;8.748;2023-07-20T04:31:56;16.40;80.60
6627;DHT22;3349;49.830;8.748;2023-07-20T04:34:23;16.50;80.20
6627;DHT22;3349;49.830;8.748;2023-07-20T04:36:50;16.50;79.30
6627;DHT22;3349;49.830;8.748;2023-07-20T04:39:17;16.60;79.10
6627;DHT22;3349;49.830;8.748;2023-07-20T04:41:45;16.60;78.90
6627;DHT22;3349;49.830;8.748;2023-07-20T04:44:13;16.60;79.20
6627;DHT22;3349;49.830;8.748;2023-07-20T04:46:40;16.70;78.30
6627;DHT22;3349;49.830;8.748;2023-07-20T04:49:07;16.70;77.30
6627;DHT22;3349;49.830;8.748;2023-07-20T04:51:34;16.70;78.30
6627;DHT22;3349;49.830;8.748;2023-07-20T04:54:00;16.70;77.50
6627;DHT22;3349;49.830;8.748;2023-07-20T04:56:27;16.70;77.70
6627;DHT22;3349;49.830;8.748;2023-07-20T04:58:56;16.70;78.50
6627;DHT22;3349;49.830;8.748;2023-07-20T05:01:23;16.70;78.50
6627;DHT22;3349;49.830;8.748;2023-07-20T05:03:50;16.80;77.50
6627;DHT22;3349;49.830;8.748;2023-07-20T05:06:16;16.80;76.40
6627;DHT22;3349;49.830;8.748;2023-07-20T05:08:43;16.90;76.50
6627;DHT22;3349;49.830;8.748;2023-07-20T05:11:10;17.00;76.60
6627;DHT22;3349;49.830;8.748;2023-07-20T05:13:37;17.10;76.40
6627;DHT22;3349;49.830;8.748;2023-07-20T05:16:05;17.10;75.70
6627;DHT22;3349;49.830;8.748;2023-07-20T05:18:32;17.20;74.50
6627;DHT22;3349;49.830;8.748;2023-07-20T05:20:59;17.20;74.30
6627;DHT22;3349;49.830;8.748;2023-07-20T05:23:26;17.30;74.00
6627;DHT22;3349;49.830;8.748;2023-07-20T05:25:56;17.30;72.80
6627;DHT22;3349;49.830;8.748;2023-07-20T05:28:22;17.40;72.40
6627;DHT22;3349;49.830;8.748;2023-07-20T05:30:50;17.40;72.40
6627;DHT22;3349;49.830;8.748;2023-07-20T05:33:18;17.50;72.50
6627;DHT22;3349;49.830;8.748;2023-07-20T05:35:45;17.50;71.50
6627;DHT22;3349;49.830;8.748;2023-07-20T05:38:11;17.60;70.90
6627;DHT22;3349;49.830;8.748;2023-07-20T05:40:40;17.60;70.10
6627;DHT22;3349;49.830;8.748;2023-07-20T05:43:07;17.60;70.00
6627;DHT22;3349;49.830;8.748;2023-07-20T05:45:34;17.70;69.70
6627;DHT22;3349;49.830;8.748;2023-07-20T05:48:01;17.70;69.90
6627;DHT22;3349;49.830;8.748;2023-07-20T05:50:29;17.80;68.90
6627;DHT22;3349;49.830;8.748;2023-07-20T05:52:56;17.80;68.30
6627;DHT22;3349;49.830;8.748;2023-07-20T05:55:23;17.90;68.40
6627;DHT22;3349;49.830;8.748;2023-07-20T05:57:49;17.90;67.20
6627;DHT22;3349;49.830;8.748;2023-07-20T06:00:17;17.90;67.40
6627;DHT22;3349;49.830;8.748;2023-07-20T06:02:44;18.00;66.90
6627;DHT22;3349;49.830;8.748;2023-07-20T06:05:13;18.00;66.40
6627;DHT22;3349;49.830;8.748;2023-07-20T06:07:42;18.00;66.30
6627;DHT22;3349;49.830;8.748;2023-07-20T06:10:09;18.10;66.20
6627;DHT22;3349;49.830;8.748;2023-07-20T06:12:35;18.10;66.20
6627;DHT22;3349;49.830;8.748;2023-07-20T06:15:03;18.20;65.50
6627;DHT22;3349;49.830;8.748;2023-07-20T06:17:30;18.20;64.70
6627;DHT22;3349;49.830;8.748;2023-07-20T06:19:57;18.30;65.00
6627;DHT22;3349;49.830;8.748;2023-07-20T06:22:24;18.30;64.10
6627;DHT22;3349;49.830;8.748;2023-07-20T06:24:52;18.40;64.20
6627;DHT22;3349;49.830;8.748;2023-07-20T06:27:18;18.40;64.20
6627;DHT22;3349;49.830;8.748;2023-07-20T06:29:45;18.40;64.20
6627;DHT22;3349;49.830;8.748;2023-07-20T06:32:12;18.40;64.00
6627;DHT22;3349;49.830;8.748;2023-07-20T06:34:39;18.40;63.40
6627;DHT22;3349;49.830;8.748;2023-07-20T06:37:05;18.40;63.80
6627;DHT22;3349;49.830;8.748;2023-07-20T06:39:32;18.40;63.40
6627;DHT22;3349;49.830;8.748;2023-07-20T06:42:00;18.40;62.90
6627;DHT22;3349;49.830;8.748;2023-07-20T06:44:27;18.40;63.50
6627;DHT22;3349;49.830;8.748;2023-07-20T06:46:54;18.40;63.80
6627;DHT22;3349;49.830;8.748;2023-07-20T06:49:24;18.40;64.20
6627;DHT22;3349;49.830;8.748;2023-07-20T06:51:52;18.50;64.60
6627;DHT22;3349;49.830;8.748;2023-07-20T06:54:18;18.50;63.00
6627;DHT22;3349;49.830;8.748;2023-07-20T06:56:45;18.50;63.70
6627;DHT22;3349;49.830;8.748;2023-07-20T06:59:13;18.40;63.30
6627;DHT22;3349;49.830;8.748;2023-07-20T07:01:40;18.40;63.60
6627;DHT22;3349;49.830;8.748;2023-07-20T07:04:06;18.40;64.10
6627;DHT22;3349;49.830;8.748;2023-07-20T07:06:33;18.40;64.20
6627;DHT22;3349;49.830;8.748;2023-07-20T07:09:02;18.50;64.30
6627;DHT22;3349;49.830;8.748;2023-07-20T07:11:29;18.60;64.20
6627;DHT22;3349;49.830;8.748;2023-07-20T07:13:56;18.70;63.10
6627;DHT22;3349;49.830;8.748;2023-07-20T07:16:24;18.80;63.70
6627;DHT22;3349;49.830;8.748;2023-07-20T07:18:51;18.90;63.20
6627;DHT22;3349;49.830;8.748;2023-07-20T07:21:18;19.00;62.10
6627;DHT22;3349;49.830;8.748;2023-07-20T07:23:45;19.00;61.40
6627;DHT22;3349;49.830;8.748;2023-07-20T07:26:12;19.00;61.40
6627;DHT22;3349;49.830;8.748;2023-07-20T07:28:39;19.10;60.90
6627;DHT22;3349;49.830;8.748;2023-07-20T07:31:06;19.10;60.90
6627;DHT22;3349;49.830;8.748;2023-07-20T07:33:34;19.30;60.80
6627;DHT22;3349;49.830;8.748;2023-07-20T07:36:01;19.40;60.50
6627;DHT22;3349;49.830;8.748;2023-07-20T07:38:28;19.70;59.50
6627;DHT22;3349;49.830;8.748;2023-07-20T07:40:54;19.80;58.40
6627;DHT22;3349;49.830;8.748;2023-07-20T07:43:21;19.90;57.80
6627;DHT22;3349;49.830;8.748;2023-07-20T07:45:48;20.10;57.70
6627;DHT22;3349;49.830;8.748;2023-07-20T07:48:15;20.30;57.10
6627;DHT22;3349;49.830;8.748;2023-07-20T07:50:44;20.60;55.80
6627;DHT22;3349;49.830;8.748;2023-07-20T07:53:10;20.90;55.60
6627;DHT22;3349;49.830;8.748;2023-07-20T07:55:38;21.10;54.70
6627;DHT22;3349;49.830;8.748;2023-07-20T07:58:05;21.10;54.00
6627;DHT22;3349;49.830;8.748;2023-07-20T08:00:32;21.20;54.70
6627;DHT22;3349;49.830;8.748;2023-07-20T08:02:59;21.20;54.00
6627;DHT22;3349;49.830;8.748;2023-07-20T08:05:25;21.10;53.90
6627;DHT22;3349;49.830;8.748;2023-07-20T08:07:53;21.10;54.00
6627;DHT22;3349;49.830;8.748;2023-07-20T08:10:20;21.00;54.60
6627;DHT22;3349;49.830;8.748;2023-07-20T08:12:47;21.10;53.70
6627;DHT22;3349;49.830;8.748;2023-07-20T08:15:14;21.40;53.30
6627;DHT22;3349;49.830;8.748;2023-07-20T08:17:41;22.30;50.70
6627;DHT22;3349;49.830;8.748;2023-07-20T08:20:09;23.40;48.10
6627;DHT22;3349;49.830;8.748;2023-07-20T08:22:37;24.20;45.10
6627;DHT22;3349;49.830;8.748;2023-07-20T08:25:08;25.00;43.00
6627;DHT22;3349;49.830;8.748;2023-07-20T08:27:35;25.50;41.40
6627;DHT22;3349;49.830;8.748;2023-07-20T08:30:03;26.10;40.30
6627;DHT22;3349;49.830;8.748;2023-07-20T08:32:30;26.30;38.50
6627;DHT22;3349;49.830;8.748;2023-07-20T08:34:57;26.10;38.60
6627;DHT22;3349;49.830;8.748;2023-07-20T08:37:24;26.00;38.70
6627;DHT22;3349;49.830;8.748;2023-07-20T08:39:50;26.40;37.60
6627;DHT22;3349;49.830;8.748;2023-07-20T08:42:19;26.80;36.70
6627;DHT22;3349;49.830;8.748;2023-07-20T08:44:48;26.90;36.80
6627;DHT22;3349;49.830;8.748;2023-07-20T08:47:16;27.40;37.00
6627;DHT22;3349;49.830;8.748;2023-07-20T08:49:43;28.50;34.70
6627;DHT22;3349;49.830;8.748;2023-07-20T08:52:11;28.10;34.40
6627;DHT22;3349;49.830;8.748;2023-07-20T08:54:39;28.70;33.30
6627;DHT22;3349;49.830;8.748;2023-07-20T08:57:06;28.20;33.60
6627;DHT22;3349;49.830;8.748;2023-07-20T08:59:36;27.10;35.30
6627;DHT22;3349;49.830;8.748;2023-07-20T09:02:04;27.60;35.90
6627;DHT22;3349;49.830;8.748;2023-07-20T09:04:32;28.60;34.70
6627;DHT22;3349;49.830;8.748;2023-07-20T09:06:58;28.80;32.90
6627;DHT22;3349;49.830;8.748;2023-07-20T09:09:25;29.70;31.10
6627;DHT22;3349;49.830;8.748;2023-07-20T09:11:52;30.00;31.10
6627;DHT22;3349;49.830;8.748;2023-07-20T09:14:19;30.80;29.60
6627;DHT22;3349;49.830;8.748;2023-07-20T09:16:52;31.20;28.50
6627;DHT22;3349;49.830;8.748;2023-07-20T09:19:20;31.70;27.80
6627;DHT22;3349;49.830;8.748;2023-07-20T09:21:48;31.90;26.90
6627;DHT22;3349;49.830;8.748;2023-07-20T09:24:16;32.40;26.50
6627;DHT22;3349;49.830;8.748;2023-07-20T09:26:45;31.50;26.10
6627;DHT22;3349;49.830;8.748;2023-07-20T09:29:14;31.90;26.30
6627;DHT22;3349;49.830;8.748;2023-07-20T09:31:40;31.80;26.60
6627;DHT22;3349;49.830;8.748;2023-07-20T09:34:08;30.90;26.80
6627;DHT22;3349;49.830;8.748;2023-07-20T09:36:36;29.80;28.50
6627;DHT22;3349;49.830;8.748;2023-07-20T09:39:03;28.90;29.40
6627;DHT22;3349;49.830;8.748;2023-07-20T09:41:31;27.20;32.10
6627;DHT22;3349;49.830;8.748;2023-07-20T09:44:05;26.00;34.80
6627;DHT22;3349;49.830;8.748;2023-07-20T09:46:43;25.70;36.00
6627;DHT22;3349;49.830;8.748;2023-07-20T09:49:11;25.40;35.80
6627;DHT22;3349;49.830;8.748;2023-07-20T09:51:38;26.00;36.10
6627;DHT22;3349;49.830;8.748;2023-07-20T09:54:05;25.70;36.00
6627;DHT22;3349;49.830;8.748;2023-07-20T09:56:33;26.10;35.00
6627;DHT22;3349;49.830;8.748;2023-07-20T09:59:00;26.90;34.10
6627;DHT22;3349;49.830;8.748;2023-07-20T10:01:27;27.20;33.10
6627;DHT22;3349;49.830;8.748;2023-07-20T10:03:57;27.10;32.80
6627;DHT22;3349;49.830;8.748;2023-07-20T10:06:28;27.60;32.00
6627;DHT22;3349;49.830;8.748;2023-07-20T10:09:00;28.10;30.40
6627;DHT22;3349;49.830;8.748;2023-07-20T10:11:30;28.20;29.80
6627;DHT22;3349;49.830;8.748;2023-07-20T10:13:59;28.90;29.40
6627;DHT22;3349;49.830;8.748;2023-07-20T10:16:29;29.90;28.40
6627;DHT22;3349;49.830;8.748;2023-07-20T10:19:03;30.50;27.40
6627;DHT22;3349;49.830;8.748;2023-07-20T10:21:34;30.30;27.50
6627;DHT22;3349;49.830;8.748;2023-07-20T10:24:03;29.70;27.30
6627;DHT22;3349;49.830;8.748;2023-07-20T10:26:30;29.30;27.80
6627;DHT22;3349;49.830;8.748;2023-07-20T10:28:57;28.50;28.80
6627;DHT22;3349;49.830;8.748;2023-07-20T10:31:25;29.70;28.30
6627;DHT22;3349;49.830;8.748;2023-07-20T10:33:54;31.60;26.00
6627;DHT22;3349;49.830;8.748;2023-07-20T10:36:25;31.50;25.40
6627;DHT22;3349;49.830;8.748;2023-07-20T10:38:54;30.10;26.70
6627;DHT22;3349;49.830;8.748;2023-07-20T10:41:27;29.30;28.10
6627;DHT22;3349;49.830;8.748;2023-07-20T10:43:58;28.60;29.20
6627;DHT22;3349;49.830;8.748;2023-07-20T10:46:42;28.70;29.30
6627;DHT22;3349;49.830;8.748;2023-07-20T10:49:10;27.90;29.00
6627;DHT22;3349;49.830;8.748;2023-07-20T10:51:41;27.80;29.10
6627;DHT22;3349;49.830;8.748;2023-07-20T10:54:33;28.40;29.20
6627;DHT22;3349;49.830;8.748;2023-07-20T10:57:28;28.60;28.90
6627;DHT22;3349;49.830;8.748;2023-07-20T11:00:07;28.60;29.00
6627;DHT22;3349;49.830;8.748;2023-07-20T11:02:42;28.80;28.60
6627;DHT22;3349;49.830;8.748;2023-07-20T11:05:35;28.90;28.30
6627;DHT22;3349;49.830;8.748;2023-07-20T11:08:07;29.00;28.10
6627;DHT22;3349;49.830;8.748;2023-07-20T11:10:37;29.90;27.50
6627;DHT22;3349;49.830;8.748;2023-07-20T11:13:28;30.20;26.00
6627;DHT22;3349;49.830;8.748;2023-07-20T11:16:04;30.10;26.40
6627;DHT22;3349;49.830;8.748;2023-07-20T11:18:34;29.30;27.10
6627;DHT22;3349;49.830;8.748;2023-07-20T11:21:07;29.00;27.20
6627;DHT22;3349;49.830;8.748;2023-07-20T11:23:38;28.80;27.50
6627;DHT22;3349;49.830;8.748;2023-07-20T11:26:06;28.70;27.50
6627;DHT22;3349;49.830;8.748;2023-07-20T11:28:34;28.70;27.40
6627;DHT22;3349;49.830;8.748;2023-07-20T11:31:01;29.40;27.20
6627;DHT22;3349;49.830;8.748;2023-07-20T11:33:28;29.50;26.80
6627;DHT22;3349;49.830;8.748;2023-07-20T11:35:54;28.70;27.40
6627;DHT22;3349;49.830;8.748;2023-07-20T11:38:21;28.70;27.70
6627;DHT22;3349;49.830;8.748;2023-07-20T11:40:49;29.10;27.50
6627;DHT22;3349;49.830;8.748;2023-07-20T11:43:18;30.40;26.30
6627;DHT22;3349;49.830;8.748;2023-07-20T11:45:46;30.50;25.50
6627;DHT22;3349;49.830;8.748;2023-07-20T11:48:14;31.80;25.10
6627;DHT22;3349;49.830;8.748;2023-07-20T11:50:41;32.40;24.00
6627;DHT22;3349;49.830;8.748;2023-07-20T11:53:08;32.50;23.80
6627;DHT22;3349;49.830;8.748;2023-07-20T11:55:36;32.20;23.80
6627;DHT22;3349;49.830;8.748;2023-07-20T11:58:04;31.30;23.40
6627;DHT22;3349;49.830;8.748;2023-07-20T12:00:33;30.20;24.60
6627;DHT22;3349;49.830;8.748;2023-07-20T12:03:01;28.70;26.50
6627;DHT22;3349;49.830;8.748;2023-07-20T12:05:27;27.90;27.90
6627;DHT22;3349;49.830;8.748;2023-07-20T12:07:55;27.40;28.60
6627;DHT22;3349;49.830;8.748;2023-07-20T12:10:25;26.80;29.20
6627;DHT22;3349;49.830;8.748;2023-07-20T12:12:54;27.00;29.30
6627;DHT22;3349;49.830;8.748;2023-07-20T12:15:22;26.90;29.00
6627;DHT22;3349;49.830;8.748;2023-07-20T12:17:52;26.60;29.20
6627;DHT22;3349;49.830;8.748;2023-07-20T12:20:26;26.60;29.20
6627;DHT22;3349;49.830;8.748;2023-07-20T12:22:56;26.20;30.00
6627;DHT22;3349;49.830;8.748;2023-07-20T12:25:23;26.00;30.80
6627;DHT22;3349;49.830;8.748;2023-07-20T12:27:50;25.90;30.80
6627;DHT22;3349;49.830;8.748;2023-07-20T12:30:17;25.80;31.30
6627;DHT22;3349;49.830;8.748;2023-07-20T12:32:43;25.50;31.80
6627;DHT22;3349;49.830;8.748;2023-07-20T12:35:11;25.30;32.10
6627;DHT22;3349;49.830;8.748;2023-07-20T12:37:40;25.10;32.60
6627;DHT22;3349;49.830;8.748;2023-07-20T12:40:07;25.00;33.40
6627;DHT22;3349;49.830;8.748;2023-07-20T12:42:36;25.10;33.60
6627;DHT22;3349;49.830;8.748;2023-07-20T12:45:04;24.90;33.50
6627;DHT22;3349;49.830;8.748;2023-07-20T12:47:31;24.70;33.60
6627;DHT22;3349;49.830;8.748;2023-07-20T12:49:58;24.70;33.90
6627;DHT22;3349;49.830;8.748;2023-07-20T12:52:26;24.70;34.30
6627;DHT22;3349;49.830;8.748;2023-07-20T12:54:53;24.80;34.00
6627;DHT22;3349;49.830;8.748;2023-07-20T12:57:19;24.90;34.50
6627;DHT22;3349;49.830;8.748;2023-07-20T12:59:46;25.10;34.30
6627;DHT22;3349;49.830;8.748;2023-07-20T13:02:13;25.10;34.30
6627;DHT22;3349;49.830;8.748;2023-07-20T13:04:39;25.80;33.40
6627;DHT22;3349;49.830;8.748;2023-07-20T13:07:09;26.40;31.90
6627;DHT22;3349;49.830;8.748;2023-07-20T13:09:38;26.70;30.60
6627;DHT22;3349;49.830;8.748;2023-07-20T13:12:05;27.40;29.80
6627;DHT22;3349;49.830;8.748;2023-07-20T13:14:32;28.10;29.00
6627;DHT22;3349;49.830;8.748;2023-07-20T13:16:58;28.50;28.60
6627;DHT22;3349;49.830;8.748;2023-07-20T13:19:25;29.00;27.70
6627;DHT22;3349;49.830;8.748;2023-07-20T13:21:52;29.20;27.70
6627;DHT22;3349;49.830;8.748;2023-07-20T13:24:19;29.30;26.80
6627;DHT22;3349;49.830;8.748;2023-07-20T13:26:47;29.00;27.30
6627;DHT22;3349;49.830;8.748;2023-07-20T13:29:14;29.00;27.50
6627;DHT22;3349;49.830;8.748;2023-07-20T13:31:40;28.60;27.40
6627;DHT22;3349;49.830;8.748;2023-07-20T13:34:07;28.10;28.00
6627;DHT22;3349;49.830;8.748;2023-07-20T13:36:34;27.80;28.40
6627;DHT22;3349;49.830;8.748;2023-07-20T13:39:00;27.80;28.80
6627;DHT22;3349;49.830;8.748;2023-07-20T13:41:27;27.60;28.70
6627;DHT22;3349;49.830;8.748;2023-07-20T13:43:55;27.50;28.70
6627;DHT22;3349;49.830;8.748;2023-07-20T13:46:22;27.40;28.60
6627;DHT22;3349;49.830;8.748;2023-07-20T13:48:49;27.30;28.60
6627;DHT22;3349;49.830;8.748;2023-07-20T13:51:16;27.20;28.50
6627;DHT22;3349;49.830;8.748;2023-07-20T13:53:43;27.10;28.50
6627;DHT22;3349;49.830;8.748;2023-07-20T13:56:12;26.90;29.00
6627;DHT22;3349;49.830;8.748;2023-07-20T13:58:38;26.70;29.30
6627;DHT22;3349;49.830;8.748;2023-07-20T14:01:07;26.60;28.90
6627;DHT22;3349;49.830;8.748;2023-07-20T14:03:33;26.60;29.40
6627;DHT22;3349;49.830;8.748;2023-07-20T14:06:00;26.50;29.70
6627;DHT22;3349;49.830;8.748;2023-07-20T14:08:27;26.70;29.40
6627;DHT22;3349;49.830;8.748;2023-07-20T14:10:55;26.30;29.40
6627;DHT22;3349;49.830;8.748;2023-07-20T14:13:22;26.40;29.70
6627;DHT22;3349;49.830;8.748;2023-07-20T14:15:48;26.40;29.90
6627;DHT22;3349;49.830;8.748;2023-07-20T14:18:17;26.60;29.60
6627;DHT22;3349;49.830;8.748;2023-07-20T14:20:44;26.50;29.70
6627;DHT22;3349;49.830;8.748;2023-07-20T14:23:11;26.80;29.30
6627;DHT22;3349;49.830;8.748;2023-07-20T14:25:38;27.00;29.30
6627;DHT22;3349;49.830;8.748;2023-07-20T14:28:05;27.50;28.70
6627;DHT22;3349;49.830;8.748;2023-07-20T14:30:32;27.40;28.60
6627;DHT22;3349;49.830;8.748;2023-07-20T14:32:59;28.10;28.40
6627;DHT22;3349;49.830;8.748;2023-07-20T14:35:27;28.30;27.40
6627;DHT22;3349;49.830;8.748;2023-07-20T14:37:54;27.90;27.10
6627;DHT22;3349;49.830;8.748;2023-07-20T14:40:20;27.10;28.30
6627;DHT22;3349;49.830;8.748;2023-07-20T14:42:47;26.80;28.40
6627;DHT22;3349;49.830;8.748;2023-07-20T14:45:14;26.70;28.90
6627;DHT22;3349;49.830;8.748;2023-07-20T14:47:41;26.80;29.00
6627;DHT22;3349;49.830;8.748;2023-07-20T14:50:09;26.40;29.20
6627;DHT22;3349;49.830;8.748;2023-07-20T14:52:37;26.10;29.90
6627;DHT22;3349;49.830;8.748;2023-07-20T14:55:05;26.10;30.20
6627;DHT22;3349;49.830;8.748;2023-07-20T14:57:32;26.10;29.90
6627;DHT22;3349;49.830;8.748;2023-07-20T14:59:59;26.10;30.00
6627;DHT22;3349;49.830;8.748;2023-07-20T15:02:26;26.10;30.00
6627;DHT22;3349;49.830;8.748;2023-07-20T15:04:52;26.00;28.50
6627;DHT22;3349;49.830;8.748;2023-07-20T15:07:20;25.90;28.80
6627;DHT22;3349;49.830;8.748;2023-07-20T15:09:49;26.00;28.60
6627;DHT22;3349;49.830;8.748;2023-07-20T15:12:16;25.90;28.20
6627;DHT22;3349;49.830;8.748;2023-07-20T15:14:43;26.10;28.40
6627;DHT22;3349;49.830;8.748;2023-07-20T15:17:10;26.30;29.50
6627;DHT22;3349;49.830;8.748;2023-07-20T15:19:38;26.40;28.20
6627;DHT22;3349;49.830;8.748;2023-07-20T15:22:05;26.40;28.10
6627;DHT22;3349;49.830;8.748;2023-07-20T15:24:32;26.40;28.20
6627;DHT22;3349;49.830;8.748;2023-07-20T15:27:00;26.60;28.90
6627;DHT22;3349;49.830;8.748;2023-07-20T15:29:28;26.90;28.40
6627;DHT22;3349;49.830;8.748;2023-07-20T15:31:55;27.10;26.50
6627;DHT22;3349;49.830;8.748;2023-07-20T15:34:21;27.30;26.40
6627;DHT22;3349;49.830;8.748;2023-07-20T15:36:48;27.30;26.50
6627;DHT22;3349;49.830;8.748;2023-07-20T15:39:15;27.60;27.10
6627;DHT22;3349;49.830;8.748;2023-07-20T15:41:41;27.50;26.60
6627;DHT22;3349;49.830;8.748;2023-07-20T15:44:09;27.60;26.50
6627;DHT22;3349;49.830;8.748;2023-07-20T15:46:46;27.30;26.50
6627;DHT22;3349;49.830;8.748;2023-07-20T15:49:13;27.20;26.70
6627;DHT22;3349;49.830;8.748;2023-07-20T15:51:41;27.00;26.90
6627;DHT22;3349;49.830;8.748;2023-07-20T15:54:09;26.70;27.20
6627;DHT22;3349;49.830;8.748;2023-07-20T15:56:36;26.30;27.90
6627;DHT22;3349;49.830;8.748;2023-07-20T15:59:04;25.90;27.90
6627;DHT22;3349;49.830;8.748;2023-07-20T16:01:32;25.70;28.50
6627;DHT22;3349;49.830;8.748;2023-07-20T16:04:00;25.70;28.60
6627;DHT22;3349;49.830;8.748;2023-07-20T16:06:26;25.70;29.00
6627;DHT22;3349;49.830;8.748;2023-07-20T16:08:53;25.70;29.20